sensor_id;sensor_type;location;lat;lon;timestamp;P1;durP1;ratioP1;P2;durP2;ratioP2
67749;SDS011;54550;48.838;8.828;2023-03-08T00:00:21;7.37;;;5.00;;
67749;SDS011;54550;48.838;8.828;2023-03-08T00:02:47;9.73;;;4.70;;
67749;SDS011;54550;48.838;8.828;2023-03-08T00:05:12;7.40;;;4.73;;
67749;SDS011;54550;48.838;8.828;2023-03-08T00:07:38;9.80;;;4.33;;
67749;SDS011;54550;48.838;8.828;2023-03-08T00:10:04;7.63;;;4.43;;
67749;SDS011;54550;48.838;8.828;2023-03-08T00:12:30;11.88;;;5.07;;
67749;SDS011;54550;48.838;8.828;2023-03-08T00:14:55;15.60;;;5.00;;
67749;SDS011;54550;48.838;8.828;2023-03-08T00:17:21;9.23;;;4.73;;
67749;SDS011;54550;48.838;8.828;2023-03-08T00:19:49;9.75;;;5.10;;
67749;SDS011;54550;48.838;8.828;2023-03-08T00:22:15;9.50;;;5.32;;
67749;SDS011;54550;48.838;8.828;2023-03-08T00:24:41;10.57;;;5.53;;
67749;SDS011;54550;48.838;8.828;2023-03-08T00:27:06;13.93;;;4.70;;
67749;SDS011;54550;48.838;8.828;2023-03-08T00:29:32;11.47;;;4.97;;
67749;SDS011;54550;48.838;8.828;2023-03-08T00:31:57;10.20;;;4.73;;
67749;SDS011;54550;48.838;8.828;2023-03-08T00:34:23;8.53;;;5.20;;
67749;SDS011;54550;48.838;8.828;2023-03-08T00:36:48;9.30;;;5.43;;
67749;SDS011;54550;48.838;8.828;2023-03-08T00:39:14;11.17;;;5.10;;
67749;SDS011;54550;48.838;8.828;2023-03-08T00:41:40;19.42;;;5.88;;
67749;SDS011;54550;48.838;8.828;2023-03-08T00:44:06;9.80;;;5.38;;
67749;SDS011;54550;48.838;8.828;2023-03-08T00:46:32;9.30;;;4.93;;
67749;SDS011;54550;48.838;8.828;2023-03-08T00:48:58;7.50;;;5.17;;
67749;SDS011;54550;48.838;8.828;2023-03-08T00:51:24;10.80;;;5.10;;
67749;SDS011;54550;48.838;8.828;2023-03-08T00:53:50;7.10;;;4.63;;
67749;SDS011;54550;48.838;8.828;2023-03-08T00:56:16;18.33;;;6.90;;
67749;SDS011;54550;48.838;8.828;2023-03-08T00:58:42;16.97;;;7.33;;
67749;SDS011;54550;48.838;8.828;2023-03-08T01:01:09;20.00;;;6.07;;
67749;SDS011;54550;48.838;8.828;2023-03-08T01:03:39;8.10;;;4.28;;
67749;SDS011;54550;48.838;8.828;2023-03-08T01:06:06;13.27;;;5.53;;
67749;SDS011;54550;48.838;8.828;2023-03-08T01:08:33;9.43;;;5.32;;
67749;SDS011;54550;48.838;8.828;2023-03-08T01:10:59;9.00;;;5.28;;
67749;SDS011;54550;48.838;8.828;2023-03-08T01:13:27;6.20;;;4.00;;
67749;SDS011;54550;48.838;8.828;2023-03-08T01:15:55;12.10;;;5.45;;
67749;SDS011;54550;48.838;8.828;2023-03-08T01:18:20;8.80;;;4.30;;
67749;SDS011;54550;48.838;8.828;2023-03-08T01:20:59;9.10;;;4.77;;
67749;SDS011;54550;48.838;8.828;2023-03-08T01:23:27;11.85;;;5.97;;
67749;SDS011;54550;48.838;8.828;2023-03-08T01:25:57;16.60;;;5.70;;
67749;SDS011;54550;48.838;8.828;2023-03-08T01:28:28;11.70;;;6.22;;
67749;SDS011;54550;48.838;8.828;2023-03-08T01:30:59;12.77;;;6.20;;
67749;SDS011;54550;48.838;8.828;2023-03-08T01:33:26;11.15;;;4.82;;
67749;SDS011;54550;48.838;8.828;2023-03-08T01:35:51;8.10;;;3.97;;
67749;SDS011;54550;48.838;8.828;2023-03-08T01:38:17;17.93;;;6.43;;
67749;SDS011;54550;48.838;8.828;2023-03-08T01:40:42;9.73;;;5.27;;
67749;SDS011;54550;48.838;8.828;2023-03-08T01:43:21;12.00;;;6.13;;
67749;SDS011;54550;48.838;8.828;2023-03-08T01:51:36;18.55;;;7.82;;
67749;SDS011;54550;48.838;8.828;2023-03-08T01:54:22;16.73;;;8.45;;
67749;SDS011;54550;48.838;8.828;2023-03-08T01:57:08;16.80;;;8.75;;
67749;SDS011;54550;48.838;8.828;2023-03-08T01:59:40;19.52;;;8.77;;
67749;SDS011;54550;48.838;8.828;2023-03-08T02:02:06;14.20;;;8.15;;
67749;SDS011;54550;48.838;8.828;2023-03-08T02:04:32;18.83;;;7.87;;
67749;SDS011;54550;48.838;8.828;2023-03-08T02:06:58;19.38;;;9.25;;
67749;SDS011;54550;48.838;8.828;2023-03-08T02:09:24;18.67;;;8.57;;
67749;SDS011;54550;48.838;8.828;2023-03-08T02:11:50;16.40;;;8.73;;
67749;SDS011;54550;48.838;8.828;2023-03-08T02:14:16;21.52;;;10.10;;
67749;SDS011;54550;48.838;8.828;2023-03-08T02:16:42;17.67;;;9.33;;
67749;SDS011;54550;48.838;8.828;2023-03-08T02:19:15;20.70;;;9.10;;
67749;SDS011;54550;48.838;8.828;2023-03-08T02:22:08;23.58;;;9.30;;
67749;SDS011;54550;48.838;8.828;2023-03-08T02:24:39;17.10;;;8.45;;
67749;SDS011;54550;48.838;8.828;2023-03-08T02:27:06;14.00;;;8.27;;
67749;SDS011;54550;48.838;8.828;2023-03-08T02:29:37;14.80;;;8.55;;
67749;SDS011;54550;48.838;8.828;2023-03-08T02:32:03;19.83;;;9.97;;
67749;SDS011;54550;48.838;8.828;2023-03-08T02:34:29;16.87;;;8.77;;
67749;SDS011;54550;48.838;8.828;2023-03-08T02:36:54;19.27;;;10.27;;
67749;SDS011;54550;48.838;8.828;2023-03-08T02:39:20;16.87;;;8.17;;
67749;SDS011;54550;48.838;8.828;2023-03-08T02:41:45;14.60;;;6.70;;
67749;SDS011;54550;48.838;8.828;2023-03-08T02:44:11;21.13;;;9.80;;
67749;SDS011;54550;48.838;8.828;2023-03-08T02:46:36;15.50;;;7.50;;
67749;SDS011;54550;48.838;8.828;2023-03-08T02:49:02;16.63;;;8.80;;
67749;SDS011;54550;48.838;8.828;2023-03-08T02:51:27;11.83;;;6.90;;
67749;SDS011;54550;48.838;8.828;2023-03-08T02:53:53;16.80;;;8.07;;
67749;SDS011;54550;48.838;8.828;2023-03-08T02:56:19;13.27;;;7.50;;
67749;SDS011;54550;48.838;8.828;2023-03-08T02:58:44;22.17;;;10.33;;
67749;SDS011;54550;48.838;8.828;2023-03-08T03:01:10;19.07;;;9.50;;
67749;SDS011;54550;48.838;8.828;2023-03-08T03:03:37;19.45;;;10.23;;
67749;SDS011;54550;48.838;8.828;2023-03-08T03:06:03;18.52;;;10.25;;
67749;SDS011;54550;48.838;8.828;2023-03-08T03:08:29;23.20;;;8.93;;
67749;SDS011;54550;48.838;8.828;2023-03-08T03:10:55;16.73;;;8.48;;
67749;SDS011;54550;48.838;8.828;2023-03-08T03:13:21;14.47;;;8.20;;
67749;SDS011;54550;48.838;8.828;2023-03-08T03:15:46;18.10;;;8.30;;
67749;SDS011;54550;48.838;8.828;2023-03-08T03:18:12;20.93;;;8.97;;
67749;SDS011;54550;48.838;8.828;2023-03-08T03:20:37;19.63;;;8.70;;
67749;SDS011;54550;48.838;8.828;2023-03-08T03:23:03;20.63;;;9.87;;
67749;SDS011;54550;48.838;8.828;2023-03-08T03:25:28;19.80;;;9.13;;
67749;SDS011;54550;48.838;8.828;2023-03-08T03:27:54;19.60;;;9.83;;
67749;SDS011;54550;48.838;8.828;2023-03-08T03:30:20;27.70;;;10.10;;
67749;SDS011;54550;48.838;8.828;2023-03-08T03:32:46;18.23;;;8.60;;
67749;SDS011;54550;48.838;8.828;2023-03-08T03:35:11;15.60;;;9.37;;
67749;SDS011;54550;48.838;8.828;2023-03-08T03:37:37;20.93;;;10.57;;
67749;SDS011;54550;48.838;8.828;2023-03-08T03:40:03;17.30;;;10.40;;
67749;SDS011;54550;48.838;8.828;2023-03-08T03:42:29;19.13;;;7.45;;
67749;SDS011;54550;48.838;8.828;2023-03-08T03:44:55;15.10;;;7.20;;
67749;SDS011;54550;48.838;8.828;2023-03-08T03:47:20;14.80;;;8.70;;
67749;SDS011;54550;48.838;8.828;2023-03-08T03:49:46;30.07;;;8.73;;
67749;SDS011;54550;48.838;8.828;2023-03-08T03:52:11;16.13;;;8.17;;
67749;SDS011;54550;48.838;8.828;2023-03-08T03:54:37;21.70;;;8.80;;
67749;SDS011;54550;48.838;8.828;2023-03-08T03:57:02;20.43;;;9.43;;
67749;SDS011;54550;48.838;8.828;2023-03-08T03:59:28;9.50;;;5.87;;
67749;SDS011;54550;48.838;8.828;2023-03-08T04:01:54;15.93;;;9.40;;
67749;SDS011;54550;48.838;8.828;2023-03-08T04:04:19;17.90;;;9.27;;
67749;SDS011;54550;48.838;8.828;2023-03-08T04:06:45;19.70;;;12.17;;
67749;SDS011;54550;48.838;8.828;2023-03-08T04:09:15;15.63;;;8.00;;
67749;SDS011;54550;48.838;8.828;2023-03-08T04:11:42;21.48;;;9.50;;
67749;SDS011;54550;48.838;8.828;2023-03-08T04:14:08;18.40;;;9.23;;
67749;SDS011;54550;48.838;8.828;2023-03-08T04:16:35;15.65;;;7.85;;
67749;SDS011;54550;48.838;8.828;2023-03-08T04:19:03;18.85;;;9.02;;
67749;SDS011;54550;48.838;8.828;2023-03-08T04:21:30;20.00;;;10.07;;
67749;SDS011;54550;48.838;8.828;2023-03-08T04:23:56;20.23;;;9.82;;
67749;SDS011;54550;48.838;8.828;2023-03-08T04:26:23;17.88;;;8.15;;
67749;SDS011;54550;48.838;8.828;2023-03-08T04:28:49;23.40;;;9.55;;
67749;SDS011;54550;48.838;8.828;2023-03-08T04:31:16;19.58;;;9.27;;
67749;SDS011;54550;48.838;8.828;2023-03-08T04:33:45;21.83;;;8.98;;
67749;SDS011;54550;48.838;8.828;2023-03-08T04:36:11;19.77;;;9.20;;
67749;SDS011;54550;48.838;8.828;2023-03-08T04:38:38;18.13;;;9.90;;
67749;SDS011;54550;48.838;8.828;2023-03-08T04:41:04;13.95;;;8.27;;
67749;SDS011;54550;48.838;8.828;2023-03-08T04:43:34;36.05;;;9.30;;
67749;SDS011;54550;48.838;8.828;2023-03-08T04:46:00;16.25;;;9.13;;
67749;SDS011;54550;48.838;8.828;2023-03-08T04:48:26;15.50;;;7.83;;
67749;SDS011;54550;48.838;8.828;2023-03-08T04:50:56;18.98;;;9.77;;
67749;SDS011;54550;48.838;8.828;2023-03-08T04:53:24;22.98;;;8.93;;
67749;SDS011;54550;48.838;8.828;2023-03-08T04:55:50;17.58;;;8.27;;
67749;SDS011;54550;48.838;8.828;2023-03-08T04:58:16;23.47;;;8.73;;
67749;SDS011;54550;48.838;8.828;2023-03-08T05:00:42;20.65;;;8.35;;
67749;SDS011;54550;48.838;8.828;2023-03-08T05:03:08;16.23;;;8.40;;
67749;SDS011;54550;48.838;8.828;2023-03-08T05:05:34;15.23;;;8.30;;
67749;SDS011;54550;48.838;8.828;2023-03-08T05:08:00;19.60;;;9.57;;
67749;SDS011;54550;48.838;8.828;2023-03-08T05:10:28;19.33;;;8.90;;
67749;SDS011;54550;48.838;8.828;2023-03-08T05:12:54;20.40;;;8.60;;
67749;SDS011;54550;48.838;8.828;2023-03-08T05:15:19;19.77;;;8.60;;
67749;SDS011;54550;48.838;8.828;2023-03-08T05:17:47;15.45;;;8.10;;
67749;SDS011;54550;48.838;8.828;2023-03-08T05:20:13;19.70;;;8.03;;
67749;SDS011;54550;48.838;8.828;2023-03-08T05:22:39;13.43;;;7.28;;
67749;SDS011;54550;48.838;8.828;2023-03-08T05:25:04;17.10;;;8.20;;
67749;SDS011;54550;48.838;8.828;2023-03-08T05:27:31;16.53;;;7.83;;
67749;SDS011;54550;48.838;8.828;2023-03-08T05:29:59;25.17;;;9.10;;
67749;SDS011;54550;48.838;8.828;2023-03-08T05:32:25;16.77;;;7.50;;
67749;SDS011;54550;48.838;8.828;2023-03-08T05:34:51;18.63;;;9.40;;
67749;SDS011;54550;48.838;8.828;2023-03-08T05:37:17;14.07;;;7.85;;
67749;SDS011;54550;48.838;8.828;2023-03-08T05:39:43;16.03;;;7.10;;
67749;SDS011;54550;48.838;8.828;2023-03-08T05:42:08;18.17;;;7.87;;
67749;SDS011;54550;48.838;8.828;2023-03-08T05:44:36;14.60;;;7.38;;
67749;SDS011;54550;48.838;8.828;2023-03-08T05:47:02;12.43;;;7.13;;
67749;SDS011;54550;48.838;8.828;2023-03-08T05:49:28;12.25;;;7.22;;
67749;SDS011;54550;48.838;8.828;2023-03-08T05:51:53;13.10;;;7.60;;
67749;SDS011;54550;48.838;8.828;2023-03-08T05:54:19;11.90;;;7.33;;
67749;SDS011;54550;48.838;8.828;2023-03-08T05:56:45;14.80;;;7.17;;
67749;SDS011;54550;48.838;8.828;2023-03-08T05:59:10;17.47;;;7.27;;
67749;SDS011;54550;48.838;8.828;2023-03-08T06:01:36;16.83;;;7.37;;
67749;SDS011;54550;48.838;8.828;2023-03-08T06:04:01;16.57;;;7.27;;
67749;SDS011;54550;48.838;8.828;2023-03-08T06:06:27;12.23;;;6.77;;
67749;SDS011;54550;48.838;8.828;2023-03-08T06:08:53;15.83;;;7.33;;
67749;SDS011;54550;48.838;8.828;2023-03-08T06:11:20;15.82;;;7.70;;
67749;SDS011;54550;48.838;8.828;2023-03-08T06:13:46;16.10;;;7.82;;
67749;SDS011;54550;48.838;8.828;2023-03-08T06:16:12;10.77;;;5.30;;
67749;SDS011;54550;48.838;8.828;2023-03-08T06:18:38;15.90;;;7.32;;
67749;SDS011;54550;48.838;8.828;2023-03-08T06:21:06;18.92;;;7.30;;
67749;SDS011;54550;48.838;8.828;2023-03-08T06:23:34;10.55;;;6.43;;
67749;SDS011;54550;48.838;8.828;2023-03-08T06:26:00;19.17;;;7.45;;
67749;SDS011;54550;48.838;8.828;2023-03-08T06:28:27;18.35;;;7.63;;
67749;SDS011;54550;48.838;8.828;2023-03-08T06:30:53;12.68;;;7.65;;
67749;SDS011;54550;48.838;8.828;2023-03-08T06:33:21;17.50;;;8.80;;
67749;SDS011;54550;48.838;8.828;2023-03-08T06:35:58;14.25;;;8.07;;
67749;SDS011;54550;48.838;8.828;2023-03-08T06:38:26;15.57;;;8.25;;
67749;SDS011;54550;48.838;8.828;2023-03-08T06:40:52;10.68;;;6.57;;
67749;SDS011;54550;48.838;8.828;2023-03-08T06:43:18;13.73;;;7.03;;
67749;SDS011;54550;48.838;8.828;2023-03-08T06:45:44;15.60;;;7.03;;
67749;SDS011;54550;48.838;8.828;2023-03-08T06:48:10;10.93;;;5.50;;
67749;SDS011;54550;48.838;8.828;2023-03-08T06:50:35;14.20;;;7.70;;
67749;SDS011;54550;48.838;8.828;2023-03-08T06:53:01;29.37;;;6.77;;
67749;SDS011;54550;48.838;8.828;2023-03-08T06:55:26;19.17;;;9.20;;
67749;SDS011;54550;48.838;8.828;2023-03-08T06:57:52;18.10;;;6.37;;
67749;SDS011;54550;48.838;8.828;2023-03-08T07:00:20;16.17;;;7.15;;
67749;SDS011;54550;48.838;8.828;2023-03-08T07:02:46;12.27;;;7.28;;
67749;SDS011;54550;48.838;8.828;2023-03-08T07:05:13;16.58;;;8.25;;
67749;SDS011;54550;48.838;8.828;2023-03-08T07:07:42;14.15;;;6.18;;
67749;SDS011;54550;48.838;8.828;2023-03-08T07:10:08;10.53;;;5.93;;
67749;SDS011;54550;48.838;8.828;2023-03-08T07:12:41;8.07;;;6.00;;
67749;SDS011;54550;48.838;8.828;2023-03-08T07:15:11;10.77;;;6.78;;
67749;SDS011;54550;48.838;8.828;2023-03-08T07:17:38;14.75;;;6.75;;
67749;SDS011;54550;48.838;8.828;2023-03-08T07:20:05;13.52;;;6.13;;
67749;SDS011;54550;48.838;8.828;2023-03-08T07:22:31;10.95;;;5.80;;
67749;SDS011;54550;48.838;8.828;2023-03-08T07:24:57;8.83;;;5.07;;
67749;SDS011;54550;48.838;8.828;2023-03-08T07:27:23;10.73;;;6.40;;
67749;SDS011;54550;48.838;8.828;2023-03-08T07:29:48;7.13;;;4.70;;
67749;SDS011;54550;48.838;8.828;2023-03-08T07:32:14;11.70;;;6.50;;
67749;SDS011;54550;48.838;8.828;2023-03-08T07:34:40;10.43;;;5.60;;
67749;SDS011;54550;48.838;8.828;2023-03-08T07:37:09;14.60;;;7.77;;
67749;SDS011;54550;48.838;8.828;2023-03-08T07:39:36;22.38;;;7.70;;
67749;SDS011;54550;48.838;8.828;2023-03-08T07:42:01;11.83;;;6.80;;
67749;SDS011;54550;48.838;8.828;2023-03-08T07:44:27;14.23;;;7.30;;
67749;SDS011;54550;48.838;8.828;2023-03-08T07:46:53;17.23;;;8.60;;
67749;SDS011;54550;48.838;8.828;2023-03-08T07:49:18;13.70;;;7.17;;
67749;SDS011;54550;48.838;8.828;2023-03-08T07:51:44;16.70;;;8.93;;
67749;SDS011;54550;48.838;8.828;2023-03-08T07:54:10;18.93;;;9.17;;
67749;SDS011;54550;48.838;8.828;2023-03-08T07:56:36;20.77;;;8.85;;
67749;SDS011;54550;48.838;8.828;2023-03-08T07:59:02;20.57;;;10.20;;
67749;SDS011;54550;48.838;8.828;2023-03-08T08:01:28;15.07;;;9.10;;
67749;SDS011;54550;48.838;8.828;2023-03-08T08:03:53;21.50;;;10.57;;
67749;SDS011;54550;48.838;8.828;2023-03-08T08:06:19;16.83;;;9.17;;
67749;SDS011;54550;48.838;8.828;2023-03-08T08:08:45;20.60;;;10.23;;
67749;SDS011;54550;48.838;8.828;2023-03-08T08:11:14;10.00;;;6.30;;
67749;SDS011;54550;48.838;8.828;2023-03-08T08:13:43;17.60;;;9.15;;
67749;SDS011;54550;48.838;8.828;2023-03-08T08:16:11;14.80;;;9.00;;
67749;SDS011;54550;48.838;8.828;2023-03-08T08:18:37;15.27;;;8.80;;
67749;SDS011;54550;48.838;8.828;2023-03-08T08:21:03;25.30;;;10.80;;
67749;SDS011;54550;48.838;8.828;2023-03-08T08:23:39;16.95;;;10.18;;
67749;SDS011;54550;48.838;8.828;2023-03-08T08:26:07;16.13;;;8.98;;
67749;SDS011;54550;48.838;8.828;2023-03-08T08:28:35;16.80;;;9.43;;
67749;SDS011;54550;48.838;8.828;2023-03-08T08:31:05;19.67;;;10.75;;
67749;SDS011;54550;48.838;8.828;2023-03-08T08:33:32;21.52;;;11.68;;
67749;SDS011;54550;48.838;8.828;2023-03-08T08:35:58;14.77;;;9.37;;
67749;SDS011;54550;48.838;8.828;2023-03-08T08:38:24;20.95;;;11.23;;
67749;SDS011;54550;48.838;8.828;2023-03-08T08:40:50;21.45;;;11.70;;
67749;SDS011;54550;48.838;8.828;2023-03-08T08:43:16;20.53;;;9.20;;
67749;SDS011;54550;48.838;8.828;2023-03-08T08:45:45;17.53;;;10.30;;
67749;SDS011;54550;48.838;8.828;2023-03-08T08:48:12;18.92;;;10.95;;
67749;SDS011;54550;48.838;8.828;2023-03-08T08:50:39;17.05;;;9.85;;
67749;SDS011;54550;48.838;8.828;2023-03-08T08:53:06;19.75;;;11.88;;
67749;SDS011;54550;48.838;8.828;2023-03-08T08:55:32;18.23;;;11.20;;
67749;SDS011;54550;48.838;8.828;2023-03-08T08:57:57;19.73;;;10.10;;
67749;SDS011;54550;48.838;8.828;2023-03-08T09:00:23;22.73;;;10.27;;
67749;SDS011;54550;48.838;8.828;2023-03-08T09:02:48;21.53;;;9.70;;
67749;SDS011;54550;48.838;8.828;2023-03-08T09:05:14;18.40;;;10.50;;
67749;SDS011;54550;48.838;8.828;2023-03-08T09:07:40;18.43;;;10.00;;
67749;SDS011;54550;48.838;8.828;2023-03-08T09:10:05;27.30;;;11.27;;
67749;SDS011;54550;48.838;8.828;2023-03-08T09:12:32;23.65;;;12.68;;
67749;SDS011;54550;48.838;8.828;2023-03-08T09:14:58;19.47;;;11.10;;
67749;SDS011;54550;48.838;8.828;2023-03-08T09:17:24;35.97;;;13.83;;
67749;SDS011;54550;48.838;8.828;2023-03-08T09:19:49;21.97;;;12.00;;
67749;SDS011;54550;48.838;8.828;2023-03-08T09:22:15;24.00;;;11.93;;
67749;SDS011;54550;48.838;8.828;2023-03-08T09:24:41;22.67;;;12.80;;
67749;SDS011;54550;48.838;8.828;2023-03-08T09:27:07;26.80;;;13.23;;
67749;SDS011;54550;48.838;8.828;2023-03-08T09:29:32;28.30;;;13.30;;
67749;SDS011;54550;48.838;8.828;2023-03-08T09:31:58;18.88;;;11.57;;
67749;SDS011;54550;48.838;8.828;2023-03-08T09:34:25;25.90;;;14.10;;
67749;SDS011;54550;48.838;8.828;2023-03-08T09:36:50;20.93;;;10.97;;
67749;SDS011;54550;48.838;8.828;2023-03-08T09:39:16;13.83;;;7.03;;
67749;SDS011;54550;48.838;8.828;2023-03-08T09:49:53;21.00;;;11.35;;
67749;SDS011;54550;48.838;8.828;2023-03-08T09:52:31;14.35;;;10.40;;
67749;SDS011;54550;48.838;8.828;2023-03-08T09:55:02;18.45;;;10.32;;
67749;SDS011;54550;48.838;8.828;2023-03-08T09:57:33;15.60;;;7.97;;
67749;SDS011;54550;48.838;8.828;2023-03-08T10:00:02;14.50;;;8.60;;
67749;SDS011;54550;48.838;8.828;2023-03-08T10:02:37;12.00;;;8.55;;
67749;SDS011;54550;48.838;8.828;2023-03-08T10:05:19;16.17;;;8.23;;
67749;SDS011;54550;48.838;8.828;2023-03-08T10:16:15;9.00;;;5.38;;
67749;SDS011;54550;48.838;8.828;2023-03-08T10:18:55;8.18;;;5.78;;
67749;SDS011;54550;48.838;8.828;2023-03-08T10:21:30;16.30;;;7.85;;
67749;SDS011;54550;48.838;8.828;2023-03-08T10:24:10;10.60;;;5.95;;
67749;SDS011;54550;48.838;8.828;2023-03-08T10:26:42;10.75;;;5.18;;
67749;SDS011;54550;48.838;8.828;2023-03-08T10:29:12;9.57;;;4.78;;
67749;SDS011;54550;48.838;8.828;2023-03-08T10:31:38;8.07;;;5.32;;
67749;SDS011;54550;48.838;8.828;2023-03-08T10:37:02;5.43;;;4.03;;
67749;SDS011;54550;48.838;8.828;2023-03-08T10:39:30;5.68;;;2.97;;
67749;SDS011;54550;48.838;8.828;2023-03-08T10:41:56;1.60;;;1.20;;
67749;SDS011;54550;48.838;8.828;2023-03-08T10:44:31;2.25;;;1.70;;
67749;SDS011;54550;48.838;8.828;2023-03-08T10:47:16;2.50;;;2.30;;
67749;SDS011;54550;48.838;8.828;2023-03-08T10:50:03;1.23;;;0.85;;
67749;SDS011;54550;48.838;8.828;2023-03-08T10:52:30;1.15;;;1.05;;
67749;SDS011;54550;48.838;8.828;2023-03-08T10:55:15;1.17;;;0.97;;
67749;SDS011;54550;48.838;8.828;2023-03-08T10:57:52;1.90;;;1.13;;
67749;SDS011;54550;48.838;8.828;2023-03-08T11:00:35;1.40;;;1.13;;
67749;SDS011;54550;48.838;8.828;2023-03-08T12:01:59;1.00;;;0.80;;
67749;SDS011;54550;48.838;8.828;2023-03-08T12:07:06;2.60;;;1.10;;
67749;SDS011;54550;48.838;8.828;2023-03-08T12:09:41;0.70;;;0.40;;
67749;SDS011;54550;48.838;8.828;2023-03-08T12:12:20;1.17;;;0.60;;
67749;SDS011;54550;48.838;8.828;2023-03-08T12:17:39;1.90;;;0.63;;
67749;SDS011;54550;48.838;8.828;2023-03-08T12:20:14;1.92;;;0.90;;
67749;SDS011;54550;48.838;8.828;2023-03-08T12:22:44;1.10;;;1.00;;
67749;SDS011;54550;48.838;8.828;2023-03-08T12:25:25;1.30;;;0.80;;
67749;SDS011;54550;48.838;8.828;2023-03-08T12:28:20;2.35;;;0.75;;
67749;SDS011;54550;48.838;8.828;2023-03-08T12:33:36;1.00;;;0.70;;
67749;SDS011;54550;48.838;8.828;2023-03-08T12:36:05;1.93;;;1.17;;
67749;SDS011;54550;48.838;8.828;2023-03-08T12:38:33;2.88;;;0.88;;
67749;SDS011;54550;48.838;8.828;2023-03-08T12:41:05;2.83;;;0.70;;
67749;SDS011;54550;48.838;8.828;2023-03-08T12:44:02;3.75;;;1.30;;
67749;SDS011;54550;48.838;8.828;2023-03-08T12:49:41;1.10;;;0.65;;
67749;SDS011;54550;48.838;8.828;2023-03-08T12:57:27;1.10;;;0.70;;
67749;SDS011;54550;48.838;8.828;2023-03-08T13:00:07;3.20;;;0.90;;
67749;SDS011;54550;48.838;8.828;2023-03-08T13:02:56;1.17;;;0.83;;
67749;SDS011;54550;48.838;8.828;2023-03-08T13:05:38;2.80;;;0.83;;
67749;SDS011;54550;48.838;8.828;2023-03-08T13:08:06;1.33;;;0.60;;
67749;SDS011;54550;48.838;8.828;2023-03-08T13:11:04;1.07;;;0.60;;
67749;SDS011;54550;48.838;8.828;2023-03-08T13:19:02;1.43;;;0.60;;
67749;SDS011;54550;48.838;8.828;2023-03-08T13:22:26;1.00;;;0.70;;
67749;SDS011;54550;48.838;8.828;2023-03-08T13:27:25;1.52;;;0.88;;
67749;SDS011;54550;48.838;8.828;2023-03-08T13:30:52;1.00;;;0.90;;
67749;SDS011;54550;48.838;8.828;2023-03-08T13:33:06;2.95;;;1.10;;
67749;SDS011;54550;48.838;8.828;2023-03-08T13:35:36;1.10;;;0.80;;
67749;SDS011;54550;48.838;8.828;2023-03-08T13:38:01;1.23;;;1.00;;
67749;SDS011;54550;48.838;8.828;2023-03-08T13:40:27;3.10;;;0.70;;
67749;SDS011;54550;48.838;8.828;2023-03-08T13:42:55;1.50;;;1.20;;
67749;SDS011;54550;48.838;8.828;2023-03-08T13:45:22;1.00;;;0.70;;
67749;SDS011;54550;48.838;8.828;2023-03-08T13:47:48;1.30;;;0.80;;
67749;SDS011;54550;48.838;8.828;2023-03-08T13:50:19;1.30;;;1.20;;
67749;SDS011;54550;48.838;8.828;2023-03-08T13:52:51;1.42;;;1.13;;
67749;SDS011;54550;48.838;8.828;2023-03-08T13:55:23;3.25;;;1.17;;
67749;SDS011;54550;48.838;8.828;2023-03-08T13:57:54;2.85;;;0.90;;
67749;SDS011;54550;48.838;8.828;2023-03-08T14:00:22;0.90;;;0.60;;
67749;SDS011;54550;48.838;8.828;2023-03-08T14:02:48;0.85;;;0.57;;
67749;SDS011;54550;48.838;8.828;2023-03-08T14:05:26;1.10;;;1.00;;
67749;SDS011;54550;48.838;8.828;2023-03-08T14:08:02;1.15;;;0.80;;
67749;SDS011;54550;48.838;8.828;2023-03-08T14:10:51;1.10;;;0.70;;
67749;SDS011;54550;48.838;8.828;2023-03-08T14:13:52;4.43;;;1.15;;
67749;SDS011;54550;48.838;8.828;2023-03-08T14:16:21;1.10;;;0.77;;
67749;SDS011;54550;48.838;8.828;2023-03-08T14:18:53;0.90;;;0.70;;
67749;SDS011;54550;48.838;8.828;2023-03-08T14:21:19;1.20;;;1.03;;
67749;SDS011;54550;48.838;8.828;2023-03-08T14:23:53;1.02;;;0.90;;
67749;SDS011;54550;48.838;8.828;2023-03-08T14:26:30;1.27;;;0.70;;
67749;SDS011;54550;48.838;8.828;2023-03-08T14:29:10;2.13;;;1.40;;
67749;SDS011;54550;48.838;8.828;2023-03-08T14:31:50;2.15;;;1.20;;
67749;SDS011;54550;48.838;8.828;2023-03-08T14:34:20;5.72;;;1.40;;
67749;SDS011;54550;48.838;8.828;2023-03-08T14:36:52;1.00;;;0.70;;
67749;SDS011;54550;48.838;8.828;2023-03-08T14:39:24;1.70;;;1.25;;
67749;SDS011;54550;48.838;8.828;2023-03-08T14:41:52;3.72;;;1.50;;
67749;SDS011;54550;48.838;8.828;2023-03-08T14:44:22;1.00;;;0.70;;
67749;SDS011;54550;48.838;8.828;2023-03-08T14:46:52;1.00;;;0.85;;
67749;SDS011;54550;48.838;8.828;2023-03-08T14:49:25;1.52;;;0.80;;
67749;SDS011;54550;48.838;8.828;2023-03-08T14:51:52;1.10;;;0.60;;
67749;SDS011;54550;48.838;8.828;2023-03-08T14:54:36;2.25;;;0.95;;
67749;SDS011;54550;48.838;8.828;2023-03-08T15:00:06;1.65;;;0.60;;
67749;SDS011;54550;48.838;8.828;2023-03-08T15:02:38;1.30;;;0.85;;
67749;SDS011;54550;48.838;8.828;2023-03-08T15:05:04;1.58;;;0.68;;
67749;SDS011;54550;48.838;8.828;2023-03-08T15:07:33;1.23;;;0.40;;
67749;SDS011;54550;48.838;8.828;2023-03-08T15:10:01;1.00;;;0.40;;
67749;SDS011;54550;48.838;8.828;2023-03-08T15:12:28;4.53;;;0.63;;
67749;SDS011;54550;48.838;8.828;2023-03-08T15:14:54;0.70;;;0.40;;
67749;SDS011;54550;48.838;8.828;2023-03-08T15:17:19;1.10;;;0.87;;
67749;SDS011;54550;48.838;8.828;2023-03-08T15:19:46;1.77;;;0.75;;
67749;SDS011;54550;48.838;8.828;2023-03-08T15:22:12;0.90;;;0.60;;
67749;SDS011;54550;48.838;8.828;2023-03-08T15:24:39;1.15;;;1.05;;
67749;SDS011;54550;48.838;8.828;2023-03-08T15:27:05;0.80;;;0.50;;
67749;SDS011;54550;48.838;8.828;2023-03-08T15:29:31;3.47;;;0.80;;
67749;SDS011;54550;48.838;8.828;2023-03-08T15:32:00;0.90;;;0.50;;
67749;SDS011;54550;48.838;8.828;2023-03-08T15:34:26;0.97;;;0.60;;
67749;SDS011;54550;48.838;8.828;2023-03-08T15:36:52;1.67;;;0.77;;
67749;SDS011;54550;48.838;8.828;2023-03-08T15:39:18;1.20;;;0.50;;
67749;SDS011;54550;48.838;8.828;2023-03-08T15:41:45;1.33;;;1.00;;
67749;SDS011;54550;48.838;8.828;2023-03-08T15:44:11;1.50;;;0.90;;
67749;SDS011;54550;48.838;8.828;2023-03-08T15:46:37;2.90;;;0.90;;
67749;SDS011;54550;48.838;8.828;2023-03-08T15:49:03;1.35;;;0.57;;
67749;SDS011;54550;48.838;8.828;2023-03-08T15:51:30;0.77;;;0.40;;
67749;SDS011;54550;48.838;8.828;2023-03-08T15:54:00;1.75;;;0.57;;
67749;SDS011;54550;48.838;8.828;2023-03-08T15:56:27;0.90;;;0.70;;
67749;SDS011;54550;48.838;8.828;2023-03-08T15:58:53;3.90;;;0.80;;
67749;SDS011;54550;48.838;8.828;2023-03-08T16:01:19;0.80;;;0.40;;
67749;SDS011;54550;48.838;8.828;2023-03-08T16:03:46;1.23;;;0.80;;
67749;SDS011;54550;48.838;8.828;2023-03-08T16:06:16;0.80;;;0.45;;
67749;SDS011;54550;48.838;8.828;2023-03-08T16:08:42;1.00;;;0.53;;
67749;SDS011;54550;48.838;8.828;2023-03-08T16:11:08;0.90;;;0.50;;
67749;SDS011;54550;48.838;8.828;2023-03-08T16:13:35;1.60;;;0.77;;
67749;SDS011;54550;48.838;8.828;2023-03-08T16:16:02;1.60;;;0.87;;
67749;SDS011;54550;48.838;8.828;2023-03-08T16:18:28;1.52;;;0.70;;
67749;SDS011;54550;48.838;8.828;2023-03-08T16:20:54;1.38;;;0.60;;
67749;SDS011;54550;48.838;8.828;2023-03-08T16:23:20;3.17;;;0.68;;
67749;SDS011;54550;48.838;8.828;2023-03-08T16:25:56;1.10;;;0.87;;
67749;SDS011;54550;48.838;8.828;2023-03-08T16:28:25;2.35;;;0.90;;
67749;SDS011;54550;48.838;8.828;2023-03-08T16:30:52;1.80;;;1.00;;
67749;SDS011;54550;48.838;8.828;2023-03-08T16:33:18;2.22;;;1.33;;
67749;SDS011;54550;48.838;8.828;2023-03-08T16:35:50;6.80;;;3.00;;
67749;SDS011;54550;48.838;8.828;2023-03-08T16:38:16;2.00;;;1.10;;